createdAt,value
2023-08-02T00:01:35.715Z,25.24
2023-08-02T00:04:10.876Z,25.17
2023-08-02T00:06:38.331Z,25.12
2023-08-02T00:09:05.708Z,25.04
2023-08-02T00:11:32.774Z,24.98
2023-08-02T00:14:00.862Z,24.95
2023-08-02T00:16:28.386Z,24.82
2023-08-02T00:18:55.838Z,24.68
2023-08-02T00:21:24.107Z,24.78
2023-08-02T00:23:51.749Z,24.79
2023-08-02T00:26:18.499Z,24.62
2023-08-02T00:28:46.324Z,24.41
2023-08-02T00:31:15.503Z,24.47
2023-08-02T00:33:42.911Z,24.56
2023-08-02T00:36:13.721Z,24.51
2023-08-02T00:38:41.555Z,24.51
2023-08-02T00:41:09.389Z,24.63
2023-08-02T00:43:40.956Z,24.70
2023-08-02T00:46:09.639Z,24.69
2023-08-02T00:48:38.978Z,24.67
2023-08-02T00:51:07.154Z,24.50
2023-08-02T00:53:35.431Z,24.56
2023-08-02T00:56:03.715Z,24.44
2023-08-02T00:58:31.101Z,24.32
2023-08-02T01:01:01.132Z,24.18
2023-08-02T01:03:28.717Z,24.01
2023-08-02T01:06:04.210Z,23.83
2023-08-02T01:08:37.398Z,23.69
2023-08-02T01:11:09.834Z,23.73
2023-08-02T01:13:40.704Z,23.63
2023-08-02T01:16:08.752Z,23.55
2023-08-02T01:18:35.488Z,23.59
2023-08-02T01:21:03.772Z,23.50
2023-08-02T01:23:31.262Z,23.51
2023-08-02T01:26:01.507Z,23.34
2023-08-02T01:28:31.604Z,23.29
2023-08-02T01:31:00.885Z,23.03
2023-08-02T01:33:29.227Z,23.01
2023-08-02T01:35:57.163Z,23.20
2023-08-02T01:38:25.389Z,23.16
2023-08-02T01:40:52.544Z,23.15
2023-08-02T01:43:20.002Z,23.22
2023-08-02T01:45:47.770Z,23.15
2023-08-02T01:48:14.614Z,23.13
2023-08-02T01:50:42.232Z,23.13
2023-08-02T01:53:09.676Z,23.12
2023-08-02T01:55:38.551Z,23.09
2023-08-02T01:58:06.084Z,23.10
2023-08-02T02:00:33.650Z,23.00
2023-08-02T02:03:01.949Z,22.96
2023-08-02T02:05:28.730Z,22.88
2023-08-02T02:07:55.666Z,22.89
2023-08-02T02:10:24.163Z,22.96
2023-08-02T02:12:52.982Z,22.84
2023-08-02T02:15:20.252Z,22.85
2023-08-02T02:17:47.610Z,23.08
2023-08-02T02:20:15.170Z,23.04
2023-08-02T02:22:42.852Z,23.01
2023-08-02T02:25:10.143Z,22.87
2023-08-02T02:27:37.402Z,22.90
2023-08-02T02:30:07.014Z,22.90
2023-08-02T02:32:34.659Z,22.87
2023-08-02T02:35:01.446Z,22.86
2023-08-02T02:37:28.634Z,22.76
2023-08-02T02:39:56.212Z,22.85
2023-08-02T02:42:22.976Z,22.90
2023-08-02T02:44:50.292Z,22.96
2023-08-02T02:47:18.543Z,22.95
2023-08-02T02:49:46.051Z,22.86
2023-08-02T02:52:13.661Z,22.82
2023-08-02T02:54:41.331Z,22.78
2023-08-02T02:57:08.771Z,22.75
2023-08-02T02:59:36.275Z,22.81
2023-08-02T03:02:03.247Z,22.78
2023-08-02T03:04:32.088Z,22.74
2023-08-02T03:06:59.643Z,22.76
2023-08-02T03:09:27.226Z,22.73
2023-08-02T03:11:54.699Z,22.79
2023-08-02T03:14:22.006Z,22.69
2023-08-02T03:16:49.446Z,22.76
2023-08-02T03:19:16.884Z,22.74
2023-08-02T03:21:45.787Z,22.93
2023-08-02T03:24:13.328Z,22.79
2023-08-02T03:26:40.310Z,22.54
2023-08-02T03:29:07.292Z,22.74
2023-08-02T03:31:34.717Z,22.74
2023-08-02T03:34:01.899Z,22.67
2023-08-02T03:36:29.944Z,22.61
2023-08-02T03:38:59.272Z,22.62
2023-08-02T03:41:26.637Z,22.62
2023-08-02T03:43:53.937Z,22.62
2023-08-02T03:46:20.741Z,22.60
2023-08-02T03:48:47.936Z,22.74
2023-08-02T03:51:15.394Z,22.73
2023-08-02T03:53:42.721Z,22.74
2023-08-02T03:56:10.918Z,22.86
2023-08-02T03:58:38.230Z,22.54
2023-08-02T04:01:05.637Z,22.65
2023-08-02T04:03:32.922Z,22.71
2023-08-02T04:06:00.367Z,22.87
2023-08-02T04:08:28.202Z,22.83
2023-08-02T04:10:54.975Z,22.88
2023-08-02T04:13:23.729Z,22.98
2023-08-02T04:15:52.783Z,22.91
2023-08-02T04:18:20.113Z,22.90
2023-08-02T04:20:47.517Z,22.95
2023-08-02T04:23:15.015Z,22.95
2023-08-02T04:25:42.661Z,22.94
2023-08-02T04:28:13.107Z,23.01
2023-08-02T04:30:41.875Z,23.12
2023-08-02T04:33:09.364Z,23.13
2023-08-02T04:35:36.739Z,23.08
2023-08-02T04:38:04.090Z,23.03
2023-08-02T04:40:31.356Z,22.98
2023-08-02T04:42:58.936Z,23.11
2023-08-02T04:45:25.642Z,23.12
2023-08-02T04:47:54.430Z,23.16
2023-08-02T04:50:22.095Z,23.04
2023-08-02T04:52:49.409Z,23.05
2023-08-02T04:55:16.930Z,22.95
2023-08-02T04:57:44.529Z,23.06
2023-08-02T05:00:12.590Z,23.03
2023-08-02T05:02:39.855Z,23.17
2023-08-02T05:05:10.597Z,23.03
2023-08-02T05:07:41.033Z,22.84
2023-08-02T05:10:09.637Z,23.16
2023-08-02T05:12:40.382Z,23.40
2023-08-02T05:15:08.913Z,23.24
2023-08-02T05:17:36.275Z,23.08
2023-08-02T05:20:03.937Z,23.09
2023-08-02T05:22:32.924Z,23.00
2023-08-02T05:25:00.228Z,23.19
2023-08-02T05:27:27.993Z,23.41
2023-08-02T05:29:55.221Z,23.38
2023-08-02T05:32:22.593Z,23.26
2023-08-02T05:34:50.284Z,23.40
2023-08-02T05:37:17.609Z,23.29
2023-08-02T05:39:46.172Z,23.34
2023-08-02T05:42:13.939Z,23.44
2023-08-02T05:44:41.364Z,23.47
2023-08-02T05:47:08.673Z,23.39
2023-08-02T05:49:36.233Z,22.95
2023-08-02T05:52:03.072Z,23.32
2023-08-02T05:54:30.476Z,23.34
2023-08-02T05:56:59.690Z,23.45
2023-08-02T05:59:29.496Z,23.44
2023-08-02T06:01:56.685Z,23.64
2023-08-02T06:04:24.304Z,23.64
2023-08-02T06:06:51.644Z,23.73
2023-08-02T06:09:19.036Z,23.81
2023-08-02T06:11:45.785Z,23.96
2023-08-02T06:14:14.488Z,23.88
2023-08-02T06:16:42.224Z,23.81
2023-08-02T06:19:10.244Z,23.84
2023-08-02T06:21:37.298Z,23.71
2023-08-02T06:24:04.735Z,23.86
2023-08-02T06:26:32.366Z,23.98
2023-08-02T06:28:59.274Z,23.89
2023-08-02T06:31:27.777Z,24.02
2023-08-02T06:33:55.144Z,24.13
2023-08-02T06:36:24.137Z,24.14
2023-08-02T06:38:50.879Z,24.22
2023-08-02T06:41:17.592Z,24.29
2023-08-02T06:43:44.797Z,24.40
2023-08-02T06:46:12.588Z,24.47
2023-08-02T06:48:41.175Z,24.57
2023-08-02T06:51:12.242Z,24.51
2023-08-02T06:53:39.007Z,24.28
2023-08-02T06:56:11.227Z,23.79
2023-08-02T06:58:37.882Z,23.37
2023-08-02T07:01:13.090Z,23.65
2023-08-02T07:03:42.122Z,23.84
2023-08-02T07:06:09.846Z,24.10
2023-08-02T07:08:37.994Z,24.04
2023-08-02T07:11:04.902Z,24.26
2023-08-02T07:13:32.721Z,24.43
2023-08-02T07:15:59.548Z,24.42
2023-08-02T07:18:27.073Z,24.52
2023-08-02T07:20:55.884Z,24.55
2023-08-02T07:23:23.905Z,24.36
2023-08-02T07:25:50.922Z,24.66
2023-08-02T07:28:19.151Z,24.61
2023-08-02T07:30:46.211Z,24.80
2023-08-02T07:33:13.347Z,24.96
2023-08-02T07:35:40.082Z,25.12
2023-08-02T07:38:09.116Z,25.36
2023-08-02T07:40:36.691Z,25.47
2023-08-02T07:43:03.387Z,25.57
2023-08-02T07:45:33.466Z,25.65
2023-08-02T07:48:01.257Z,25.66
2023-08-02T07:50:28.389Z,25.64
2023-08-02T07:52:55.075Z,25.80
2023-08-02T07:55:23.158Z,25.92
2023-08-02T07:57:51.548Z,25.86
2023-08-02T08:00:19.255Z,26.02
2023-08-02T08:02:46.584Z,25.87
2023-08-02T08:05:14.162Z,25.61
2023-08-02T08:07:42.529Z,25.13
2023-08-02T08:10:10.527Z,25.32
2023-08-02T08:12:38.796Z,25.38
2023-08-02T08:15:07.862Z,25.33
2023-08-02T08:17:35.034Z,25.21
2023-08-02T08:20:06.359Z,25.43
2023-08-02T08:22:33.081Z,25.38
2023-08-02T08:24:59.898Z,25.60
2023-08-02T08:27:27.319Z,25.27
2023-08-02T08:29:56.499Z,24.84
2023-08-02T08:32:24.012Z,24.94
2023-08-02T08:34:51.871Z,24.88
2023-08-02T08:37:19.146Z,24.80
2023-08-02T08:39:49.382Z,24.34
2023-08-02T08:42:19.266Z,23.94
2023-08-02T08:44:47.702Z,24.14
2023-08-02T08:47:18.844Z,24.91
2023-08-02T08:49:48.419Z,25.28
2023-08-02T08:52:17.080Z,24.87
2023-08-02T08:54:44.852Z,25.40
2023-08-02T08:57:13.139Z,25.49
2023-08-02T08:59:40.632Z,25.48
2023-08-02T09:02:09.500Z,25.79
2023-08-02T09:04:37.819Z,25.66
2023-08-02T09:07:05.907Z,25.75
2023-08-02T09:09:33.496Z,25.31
2023-08-02T09:12:01.120Z,25.79
2023-08-02T09:14:28.422Z,26.10
2023-08-02T09:16:57.685Z,26.13
2023-08-02T09:19:26.666Z,26.26
2023-08-02T09:22:08.525Z,26.44
2023-08-02T09:24:36.138Z,26.47
2023-08-02T09:27:03.473Z,26.43
2023-08-02T09:29:44.684Z,26.20
2023-08-02T09:32:11.599Z,26.23
2023-08-02T09:34:46.433Z,25.70
2023-08-02T09:37:16.427Z,25.80
2023-08-02T09:39:50.625Z,25.84
2023-08-02T09:42:18.094Z,25.70
2023-08-02T09:44:53.347Z,25.74
2023-08-02T09:47:22.180Z,25.84
2023-08-02T09:50:09.260Z,25.78
2023-08-02T09:52:39.320Z,25.72
2023-08-02T09:55:07.226Z,25.79
2023-08-02T09:57:34.335Z,25.82
2023-08-02T10:00:04.324Z,25.87
2023-08-02T10:02:31.998Z,25.89
2023-08-02T10:05:01.079Z,26.04
2023-08-02T10:07:32.846Z,26.08
2023-08-02T10:10:06.198Z,26.11
2023-08-02T10:12:35.099Z,26.18
2023-08-02T10:15:02.680Z,26.11
2023-08-02T10:17:31.295Z,25.99
2023-08-02T10:19:59.355Z,26.09
2023-08-02T10:22:27.071Z,26.12
2023-08-02T10:24:53.968Z,26.24
2023-08-02T10:27:23.371Z,26.33
2023-08-02T10:29:51.520Z,26.42
2023-08-02T10:32:19.795Z,26.52
2023-08-02T10:34:48.249Z,26.51
2023-08-02T10:37:16.569Z,26.69
2023-08-02T10:39:53.446Z,26.86
2023-08-02T10:42:22.409Z,26.95
2023-08-02T10:45:15.210Z,26.97
2023-08-02T10:47:42.567Z,27.17
2023-08-02T10:50:53.416Z,27.38
2023-08-02T10:53:20.722Z,27.59
2023-08-02T10:56:04.839Z,27.66
2023-08-02T10:58:52.955Z,27.90
2023-08-02T11:01:20.725Z,28.02
2023-08-02T11:03:47.984Z,28.08
2023-08-02T11:06:29.783Z,28.31
2023-08-02T11:08:57.766Z,28.48
2023-08-02T11:11:32.875Z,28.56
2023-08-02T11:14:01.032Z,28.85
2023-08-02T11:16:36.318Z,28.91
2023-08-02T11:19:08.960Z,29.12
2023-08-02T11:21:36.615Z,28.85
2023-08-02T11:24:04.382Z,28.72
2023-08-02T11:29:10.178Z,28.08
2023-08-02T11:31:37.628Z,27.88
2023-08-02T11:34:05.363Z,27.83
2023-08-02T11:36:33.939Z,27.87
2023-08-02T11:39:01.293Z,27.72
2023-08-02T11:41:28.746Z,27.58
2023-08-02T11:43:56.022Z,27.52
2023-08-02T11:46:25.119Z,27.50
2023-08-02T11:48:52.530Z,27.57
2023-08-02T11:51:21.792Z,27.54
2023-08-02T11:53:53.891Z,27.46
2023-08-02T11:56:22.170Z,27.59
2023-08-02T11:58:51.392Z,27.58
2023-08-02T12:01:19.563Z,27.57
2023-08-02T12:04:00.487Z,27.65
2023-08-02T12:06:28.725Z,27.76
2023-08-02T12:08:58.708Z,27.91
2023-08-02T12:11:27.242Z,27.67
2023-08-02T12:13:54.477Z,27.94
2023-08-02T12:16:21.328Z,27.96
2023-08-02T12:18:54.176Z,28.28
2023-08-02T12:21:23.224Z,28.39
2023-08-02T12:23:50.946Z,28.37
2023-08-02T12:26:31.202Z,28.11
2023-08-02T12:28:58.745Z,28.27
2023-08-02T12:31:25.868Z,28.50
2023-08-02T12:33:52.943Z,28.67
2023-08-02T12:36:29.255Z,28.86
2023-08-02T12:38:58.721Z,28.72
2023-08-02T12:41:26.194Z,28.79
2023-08-02T12:43:54.149Z,28.70
2023-08-02T12:46:21.863Z,28.64
2023-08-02T12:48:49.999Z,28.68
2023-08-02T12:51:18.041Z,28.68
2023-08-02T12:53:46.479Z,28.95
2023-08-02T12:56:13.258Z,29.24
2023-08-02T12:58:39.990Z,29.42
2023-08-02T13:01:06.995Z,29.19
2023-08-02T13:03:34.861Z,29.09
2023-08-02T13:06:01.766Z,29.26
2023-08-02T13:08:31.043Z,29.07
2023-08-02T13:10:59.234Z,29.16
2023-08-02T13:13:25.984Z,29.09
2023-08-02T13:15:53.257Z,28.93
2023-08-02T13:18:20.147Z,29.05
2023-08-02T13:20:46.903Z,29.22
2023-08-02T13:23:13.787Z,29.29
2023-08-02T13:25:40.564Z,29.09
2023-08-02T13:28:08.774Z,29.19
2023-08-02T13:30:35.732Z,28.85
2023-08-02T13:33:02.932Z,28.88
2023-08-02T13:35:29.816Z,28.93
2023-08-02T13:37:56.718Z,28.97
2023-08-02T13:40:23.498Z,29.05
2023-08-02T13:42:50.243Z,29.06
2023-08-02T13:45:18.587Z,29.05
2023-08-02T13:47:45.340Z,29.18
2023-08-02T13:50:12.183Z,29.12
2023-08-02T13:52:39.069Z,29.14
2023-08-02T13:55:07.057Z,28.99
2023-08-02T13:57:33.887Z,29.10
2023-08-02T14:00:00.841Z,29.35
2023-08-02T14:02:29.080Z,28.92
2023-08-02T14:04:55.950Z,28.97
2023-08-02T14:07:22.945Z,29.14
2023-08-02T14:09:49.763Z,29.26
2023-08-02T14:12:16.928Z,29.07
2023-08-02T14:14:44.501Z,29.02
2023-08-02T14:17:11.458Z,29.29
2023-08-02T14:19:39.650Z,28.93
2023-08-02T14:22:06.545Z,29.12
2023-08-02T14:24:33.337Z,29.05
2023-08-02T14:27:00.315Z,28.81
2023-08-02T14:29:27.156Z,29.04
2023-08-02T14:31:53.950Z,29.08
2023-08-02T14:34:20.830Z,28.82
2023-08-02T14:36:49.052Z,28.79
2023-08-02T14:39:15.826Z,29.15
2023-08-02T14:41:42.804Z,28.81
2023-08-02T14:44:09.566Z,28.73
2023-08-02T14:46:36.454Z,28.63
2023-08-02T14:49:03.438Z,28.74
2023-08-02T14:51:30.261Z,28.42
2023-08-02T14:54:11.392Z,28.67
2023-08-02T14:56:41.224Z,28.97
2023-08-02T14:59:08.430Z,29.10
2023-08-02T15:01:35.190Z,29.12
2023-08-02T15:04:02.384Z,28.81
2023-08-02T15:06:29.267Z,28.53
2023-08-02T15:08:56.118Z,28.16
2023-08-02T15:11:24.388Z,27.75
2023-08-02T15:13:51.233Z,27.40
2023-08-02T15:16:17.977Z,27.07
2023-08-02T15:18:45.170Z,26.91
2023-08-02T15:21:12.189Z,26.69
2023-08-02T15:23:39.052Z,26.54
2023-08-02T15:26:05.864Z,26.61
2023-08-02T15:28:34.117Z,26.18
2023-08-02T15:31:00.934Z,26.42
2023-08-02T15:33:27.919Z,26.57
2023-08-02T15:35:54.816Z,26.50
2023-08-02T15:38:22.817Z,26.33
2023-08-02T15:40:55.164Z,26.22
2023-08-02T15:43:22.024Z,26.38
2023-08-02T15:45:50.113Z,26.40
2023-08-02T15:48:17.062Z,26.55
2023-08-02T15:50:45.287Z,26.76
2023-08-02T15:53:12.029Z,26.87
2023-08-02T15:55:38.860Z,27.21
2023-08-02T15:58:05.664Z,27.25
2023-08-02T16:00:32.804Z,27.31
2023-08-02T16:03:01.214Z,27.48
2023-08-02T16:05:28.168Z,27.46
2023-08-02T16:07:55.877Z,27.50
2023-08-02T16:10:22.606Z,27.72
2023-08-02T16:12:50.464Z,27.43
2023-08-02T16:15:17.218Z,27.66
2023-08-02T16:17:44.658Z,27.51
2023-08-02T16:20:13.159Z,27.31
2023-08-02T16:22:40.733Z,27.41
2023-08-02T16:25:08.089Z,27.28
2023-08-02T16:27:35.589Z,27.23
2023-08-02T16:30:02.414Z,27.18
2023-08-02T16:32:29.722Z,27.04
2023-08-02T16:34:56.732Z,26.93
2023-08-02T16:37:25.730Z,27.00
2023-08-02T16:39:53.414Z,26.87
2023-08-02T16:42:20.151Z,26.86
2023-08-02T16:44:50.290Z,26.75
2023-08-02T16:47:17.916Z,26.84
2023-08-02T16:49:45.283Z,26.68
2023-08-02T16:52:13.382Z,26.50
2023-08-02T16:54:42.391Z,26.39
2023-08-02T16:57:09.113Z,26.71
2023-08-02T16:59:36.566Z,26.74
2023-08-02T17:02:03.891Z,26.61
2023-08-02T17:04:31.259Z,25.88
2023-08-02T17:06:58.461Z,26.06
2023-08-02T17:09:25.223Z,25.82
2023-08-02T17:11:53.943Z,25.87
2023-08-02T17:14:22.094Z,25.95
2023-08-02T17:16:49.552Z,25.91
2023-08-02T17:19:17.299Z,25.76
2023-08-02T17:21:47.630Z,25.56
2023-08-02T17:24:15.717Z,25.78
2023-08-02T17:26:42.519Z,25.93
2023-08-02T17:29:11.449Z,25.73
2023-08-02T17:31:38.969Z,25.73
2023-08-02T17:34:06.939Z,25.42
2023-08-02T17:36:34.557Z,25.00
2023-08-02T17:39:02.038Z,25.13
2023-08-02T17:41:29.768Z,25.50
2023-08-02T17:43:56.668Z,25.24
2023-08-02T17:46:26.444Z,25.38
2023-08-02T17:48:53.596Z,25.27
2023-08-02T17:51:21.029Z,24.89
2023-08-02T17:53:48.749Z,24.90
2023-08-02T17:56:15.551Z,24.87
2023-08-02T17:58:42.332Z,25.06
2023-08-02T18:01:11.217Z,24.88
2023-08-02T18:03:41.934Z,24.79
2023-08-02T18:06:10.958Z,24.80
2023-08-02T18:08:37.941Z,24.80
2023-08-02T18:11:05.036Z,24.28
2023-08-02T18:13:32.615Z,24.41
2023-08-02T18:16:00.072Z,24.43
2023-08-02T18:18:27.667Z,24.45
2023-08-02T18:20:56.406Z,24.40
2023-08-02T18:23:23.326Z,24.59
2023-08-02T18:25:50.547Z,24.55
2023-08-02T18:28:20.585Z,24.72
2023-08-02T18:30:56.169Z,24.81
2023-08-02T18:33:22.882Z,24.79
2023-08-02T18:35:50.490Z,24.50
2023-08-02T18:38:19.834Z,24.57
2023-08-02T18:40:47.087Z,24.46
2023-08-02T18:43:14.055Z,24.62
2023-08-02T18:45:40.976Z,24.66
2023-08-02T18:48:08.507Z,24.75
2023-08-02T18:50:35.308Z,24.71
2023-08-02T18:53:02.017Z,24.74
2023-08-02T18:55:33.954Z,24.65
2023-08-02T18:58:01.781Z,24.58
2023-08-02T19:00:29.495Z,24.60
2023-08-02T19:02:57.494Z,24.55
2023-08-02T19:05:24.280Z,24.48
2023-08-02T19:07:51.024Z,24.59
2023-08-02T19:10:18.080Z,24.59
2023-08-02T19:12:46.192Z,24.44
2023-08-02T19:15:16.224Z,24.38
2023-08-02T19:17:43.148Z,24.23
2023-08-02T19:20:12.647Z,24.34
2023-08-02T19:22:39.569Z,24.43
2023-08-02T19:25:07.811Z,24.54
2023-08-02T19:27:34.597Z,24.48
2023-08-02T19:30:06.403Z,24.36
2023-08-02T19:32:34.597Z,24.38
2023-08-02T19:35:02.094Z,24.48
2023-08-02T19:37:30.361Z,24.60
2023-08-02T19:39:57.437Z,24.54
2023-08-02T19:42:24.235Z,24.42
2023-08-02T19:44:52.389Z,24.14
2023-08-02T19:47:30.736Z,24.12
2023-08-02T19:49:57.776Z,24.12
2023-08-02T19:52:24.534Z,24.29
2023-08-02T19:54:52.178Z,24.23
2023-08-02T19:57:19.133Z,24.28
2023-08-02T19:59:45.880Z,24.38
2023-08-02T20:02:20.535Z,24.29
2023-08-02T20:04:48.731Z,24.44
2023-08-02T20:07:15.506Z,24.39
2023-08-02T20:09:44.846Z,24.22
2023-08-02T20:12:11.715Z,24.39
2023-08-02T20:14:38.648Z,24.55
2023-08-02T20:17:09.903Z,24.42
2023-08-02T20:19:37.443Z,24.35
2023-08-02T20:22:09.964Z,24.30
2023-08-02T20:24:38.759Z,24.27
2023-08-02T20:27:10.685Z,24.08
2023-08-02T20:29:40.070Z,23.92
2023-08-02T20:32:09.474Z,24.05
2023-08-02T20:34:42.192Z,24.07
2023-08-02T20:37:10.547Z,24.12
2023-08-02T20:39:38.750Z,24.15
2023-08-02T20:42:06.577Z,24.11
2023-08-02T20:44:33.614Z,24.23
2023-08-02T20:47:00.333Z,24.25
2023-08-02T20:49:27.087Z,24.13
2023-08-02T20:51:53.811Z,24.24
2023-08-02T20:54:21.976Z,24.09
2023-08-02T20:56:48.698Z,24.11
2023-08-02T20:59:16.721Z,24.01
2023-08-02T21:01:44.737Z,24.09
2023-08-02T21:04:13.376Z,24.05
2023-08-02T21:06:41.192Z,23.98
2023-08-02T21:09:08.110Z,23.94
2023-08-02T21:11:36.170Z,23.95
2023-08-02T21:14:02.934Z,23.93
2023-08-02T21:16:30.982Z,23.76
2023-08-02T21:18:58.907Z,23.87
2023-08-02T21:21:25.619Z,23.79
2023-08-02T21:23:52.356Z,23.84
2023-08-02T21:26:22.112Z,23.88
2023-08-02T21:28:51.145Z,23.61
2023-08-02T21:31:22.263Z,23.68
2023-08-02T21:33:49.060Z,23.78
2023-08-02T21:36:22.508Z,23.69
2023-08-02T21:38:49.629Z,24.03
2023-08-02T21:41:16.376Z,23.81
2023-08-02T21:43:43.535Z,23.81
2023-08-02T21:46:12.840Z,23.76
2023-08-02T21:48:44.868Z,23.95
2023-08-02T21:51:13.256Z,24.06
2023-08-02T21:53:40.040Z,23.87
2023-08-02T21:56:09.754Z,24.02
2023-08-02T21:58:38.730Z,23.98
2023-08-02T22:01:06.316Z,24.00
2023-08-02T22:03:34.726Z,24.10
2023-08-02T22:06:04.124Z,23.93
2023-08-02T22:08:34.325Z,23.97
2023-08-02T22:11:02.294Z,24.08
2023-08-02T22:13:29.303Z,24.03
2023-08-02T22:15:56.124Z,23.99
2023-08-02T22:18:22.879Z,24.07
2023-08-02T22:20:51.096Z,24.05
2023-08-02T22:23:17.890Z,24.11
2023-08-02T22:25:44.686Z,24.18
2023-08-02T22:28:11.970Z,24.22
2023-08-02T22:30:38.662Z,24.07
2023-08-02T22:33:05.437Z,24.09
2023-08-02T22:35:33.180Z,23.96
2023-08-02T22:38:01.224Z,24.03
2023-08-02T22:40:27.929Z,24.02
2023-08-02T22:42:54.813Z,23.85
2023-08-02T22:45:21.527Z,24.05
2023-08-02T22:47:52.819Z,24.12
2023-08-02T22:50:54.798Z,24.24
2023-08-02T22:53:20.986Z,24.46
2023-08-02T22:55:47.733Z,24.41
2023-08-02T22:58:15.542Z,24.51
2023-08-02T23:00:42.411Z,24.40
2023-08-02T23:03:28.788Z,24.46
2023-08-02T23:05:55.948Z,24.47
2023-08-02T23:08:24.168Z,24.59
2023-08-02T23:10:50.969Z,24.39
2023-08-02T23:13:23.414Z,24.46
2023-08-02T23:15:52.814Z,24.33
2023-08-02T23:18:23.119Z,24.38
2023-08-02T23:20:50.555Z,24.45
2023-08-02T23:23:30.602Z,24.58
2023-08-02T23:25:59.880Z,24.55
2023-08-02T23:28:29.279Z,24.44
2023-08-02T23:30:57.000Z,24.42
2023-08-02T23:33:24.749Z,24.42
2023-08-02T23:35:52.150Z,24.55
2023-08-02T23:38:19.838Z,24.66
2023-08-02T23:40:48.632Z,24.65
2023-08-02T23:43:15.373Z,24.67
2023-08-02T23:45:43.292Z,24.54
2023-08-02T23:48:10.966Z,24.50
2023-08-02T23:50:37.732Z,24.60
2023-08-02T23:53:04.817Z,24.54
2023-08-02T23:55:31.786Z,24.37
2023-08-02T23:58:00.435Z,23.90
